This is the latest recevied weather packets stored in our database for station/object TONGUE. If no packets are shown the sender has not sent any weather packets the latest 10 day(s).
| Time | Temp. | Humidity | Pressure | Rain* | Wind** | Luminosity | Snow |
|---|---|---|---|---|---|---|---|
| 1777593603 | 21.67° C | 51% | 0 hPa | - | - | - | - |
| 1777593004 | 21.11° C | 53% | 0 hPa | - | - | - | - |
| 1777592404 | 21.11° C | 52% | 0 hPa | - | - | - | - |
| 1777591804 | 21.11° C | 53% | 0 hPa | - | - | - | - |
| 1777591202 | 20.56° C | 54% | 0 hPa | - | - | - | - |
| 1777590603 | 22.22° C | 45% | 0 hPa | - | - | - | - |
| 1777590004 | 21.67° C | 43% | 0 hPa | - | - | - | - |
| 1777589403 | 22.22° C | 49% | 0 hPa | - | - | - | - |
| 1777588803 | 22.22° C | 45% | 0 hPa | - | - | - | - |
| 1777588203 | 21.67° C | 45% | 0 hPa | - | - | - | - |
| 1777587602 | 21.67° C | 52% | 0 hPa | - | - | - | - |
| 1777587003 | 21.67° C | 52% | 0 hPa | - | - | - | - |
| 1777586403 | 21.67° C | 52% | 0 hPa | - | - | - | - |
| 1777585803 | 21.67° C | 52% | 0 hPa | - | - | - | - |
| 1777585203 | 21.67° C | 52% | 0 hPa | - | - | - | - |
| 1777584604 | 21.67° C | 52% | 0 hPa | - | - | - | - |
| 1777584003 | 21.11° C | 47% | 0 hPa | - | - | - | - |
| 1777583403 | 21.67° C | 43% | 0 hPa | - | - | - | - |
| 1777582803 | 21.67° C | 47% | 0 hPa | - | - | - | - |
| 1777582203 | 21.67° C | 43% | 0 hPa | - | - | - | - |
| 1777581603 | 18.89° C | 58% | 0 hPa | - | - | - | - |
| 1777580403 | 21.67° C | 48% | 0 hPa | - | - | - | - |
| 1777579802 | 18.89° C | 57% | 0 hPa | - | - | - | - |
| 1777579203 | 18.89° C | 56% | 0 hPa | - | - | - | - |
| 1777578603 | 18.89° C | 56% | 0 hPa | - | - | - | - |
* Rain since midnight (hover to see other rain measurements)
** Current wind speed in m/s (hover to see current wind gust speed)